createdAt,value
2018-12-21T00:01:55.628Z,100717.55
2018-12-21T00:04:24.335Z,100718.42
2018-12-21T00:06:53.003Z,100713.61
2018-12-21T00:09:21.722Z,100707.59
2018-12-21T00:11:50.433Z,100701.47
2018-12-21T00:14:19.419Z,100707.59
2018-12-21T00:16:48.099Z,100702.80
2018-12-21T00:19:17.078Z,100696.32
2018-12-21T00:21:45.806Z,100690.20
2018-12-21T00:24:14.439Z,100694.61
2018-12-21T00:26:43.061Z,100683.28
2018-12-21T00:29:11.655Z,100693.71
2018-12-21T00:31:45.597Z,100665.34
2018-12-21T00:34:19.496Z,100682.38
2018-12-21T00:36:53.315Z,100688.03
2018-12-21T00:39:26.952Z,100687.59
2018-12-21T00:41:54.707Z,100677.16
2018-12-21T00:44:29.449Z,100684.98
2018-12-21T00:49:40.836Z,100676.23
2018-12-21T00:52:09.622Z,100674.95
2018-12-21T00:54:38.496Z,100661.92
2018-12-21T00:57:07.259Z,100670.17
2018-12-21T00:59:36.489Z,100608.51
2018-12-21T01:02:05.367Z,100667.57
2018-12-21T01:04:34.496Z,100664.06
2018-12-21T01:07:03.226Z,100664.93
2018-12-21T01:09:31.988Z,100663.19
2018-12-21T01:12:01.308Z,100663.19
2018-12-21T01:14:29.899Z,100665.80
2018-12-21T01:16:58.563Z,100627.24
2018-12-21T01:19:27.223Z,100664.97
2018-12-21T01:21:56.385Z,100530.77
2018-12-21T01:24:24.973Z,100668.41
2018-12-21T01:26:54.039Z,100664.50
2018-12-21T01:29:22.573Z,100664.97
2018-12-21T01:31:51.257Z,100664.06
2018-12-21T01:34:19.801Z,100659.75
2018-12-21T01:36:48.480Z,100659.75
2018-12-21T01:41:58.108Z,100657.08
2018-12-21T01:44:27.474Z,100662.29
2018-12-21T01:46:56.295Z,100651.86
2018-12-21T01:49:25.153Z,100654.00
2018-12-21T01:51:53.808Z,100657.91
2018-12-21T01:54:22.652Z,100657.00
2018-12-21T01:56:51.420Z,100642.27
2018-12-21T01:59:20.051Z,100650.08
2018-12-21T02:01:48.625Z,100622.66
2018-12-21T02:04:17.341Z,100656.10
2018-12-21T02:06:46.131Z,100652.22
2018-12-21T02:09:14.769Z,100649.18
2018-12-21T02:11:43.470Z,100650.95
2018-12-21T02:14:12.074Z,100649.22
2018-12-21T02:16:40.940Z,100645.77
2018-12-21T02:19:09.603Z,100643.56
2018-12-21T02:21:38.579Z,100638.81
2018-12-21T02:24:07.468Z,100628.98
2018-12-21T02:26:36.260Z,100626.61
2018-12-21T02:29:05.397Z,100526.38
2018-12-21T02:31:33.964Z,100630.52
2018-12-21T02:34:02.947Z,100627.02
2018-12-21T02:36:31.589Z,100633.53
2018-12-21T02:39:00.306Z,100628.31
2018-12-21T02:41:29.069Z,100624.80
2018-12-21T02:43:57.780Z,100630.02
2018-12-21T02:46:26.632Z,100582.95
2018-12-21T02:48:55.219Z,100612.70
2018-12-21T02:51:24.205Z,100622.20
2018-12-21T02:53:52.893Z,100609.16
2018-12-21T02:56:22.007Z,100617.02
2018-12-21T02:58:50.678Z,100605.68
2018-12-21T03:01:19.599Z,100603.08
2018-12-21T03:03:48.271Z,100598.25
2018-12-21T03:06:17.279Z,100604.38
2018-12-21T03:08:45.938Z,100587.13
2018-12-21T03:11:14.578Z,100593.52
2018-12-21T03:13:43.454Z,100557.55
2018-12-21T03:16:12.061Z,100591.77
2018-12-21T03:18:41.146Z,100589.20
2018-12-21T03:21:09.770Z,100585.28
2018-12-21T03:23:38.422Z,100577.46
2018-12-21T03:26:07.035Z,100583.55
2018-12-21T03:28:35.759Z,100578.30
2018-12-21T03:31:04.400Z,100562.92
2018-12-21T03:33:33.011Z,100568.73
2018-12-21T03:36:01.795Z,100573.44
2018-12-21T03:38:30.863Z,100576.92
2018-12-21T03:40:59.963Z,100569.97
2018-12-21T03:43:28.587Z,100566.99
2018-12-21T03:48:35.371Z,100542.50
2018-12-21T03:51:04.019Z,100557.43
2018-12-21T03:53:33.123Z,100550.48
2018-12-21T03:56:01.738Z,100554.39
2018-12-21T03:58:30.605Z,100549.61
2018-12-21T04:00:59.287Z,100555.30
2018-12-21T04:03:27.937Z,100553.16
2018-12-21T04:05:56.557Z,100547.47
2018-12-21T04:08:25.198Z,100547.06
2018-12-21T04:10:54.267Z,100536.20
2018-12-21T04:13:23.046Z,100534.50
2018-12-21T04:15:52.200Z,100529.76
2018-12-21T04:18:20.893Z,100522.84
2018-12-21T04:20:50.331Z,100522.36
2018-12-21T04:23:18.998Z,100517.22
2018-12-21T04:25:47.856Z,100511.94
2018-12-21T04:28:16.606Z,100505.41
2018-12-21T04:30:45.246Z,100507.19
2018-12-21T04:33:14.027Z,100506.28
2018-12-21T04:35:42.749Z,100498.97
2018-12-21T04:38:11.674Z,100497.66
2018-12-21T04:40:40.344Z,100491.98
2018-12-21T04:43:09.537Z,100493.75
2018-12-21T04:45:38.156Z,100487.70
2018-12-21T04:48:06.948Z,100482.02
2018-12-21T04:50:35.651Z,100484.20
2018-12-21T04:53:04.374Z,100487.70
2018-12-21T04:55:33.089Z,100487.78
2018-12-21T04:58:01.694Z,100494.22
2018-12-21T05:00:30.431Z,100481.73
2018-12-21T05:02:59.168Z,100489.02
2018-12-21T05:05:27.957Z,100486.88
2018-12-21T05:10:35.709Z,100487.38
2018-12-21T05:13:04.247Z,100467.22
2018-12-21T05:15:32.753Z,100486.95
2018-12-21T05:18:01.405Z,100486.52
2018-12-21T05:20:30.001Z,100484.34
2018-12-21T05:22:59.038Z,100489.52
2018-12-21T05:25:27.615Z,100487.38
2018-12-21T05:27:56.450Z,100487.86
2018-12-21T05:30:25.821Z,100487.42
2018-12-21T05:32:54.434Z,100484.34
2018-12-21T05:35:23.046Z,100458.88
2018-12-21T05:37:51.720Z,100493.97
2018-12-21T05:40:20.828Z,100480.06
2018-12-21T05:42:49.390Z,100483.62
2018-12-21T05:45:18.144Z,100480.94
2018-12-21T05:47:46.723Z,100480.10
2018-12-21T05:50:15.468Z,100481.01
2018-12-21T05:52:44.099Z,100472.36
2018-12-21T05:55:12.766Z,100469.75
2018-12-21T05:57:41.515Z,100434.59
2018-12-21T06:00:10.903Z,100472.75
2018-12-21T06:02:39.819Z,100422.61
2018-12-21T06:05:08.537Z,100455.81
2018-12-21T06:07:37.296Z,100450.20
2018-12-21T06:10:06.174Z,100450.67
2018-12-21T06:12:35.059Z,100454.58
2018-12-21T06:15:03.829Z,100457.19
2018-12-21T06:17:32.732Z,100449.44
2018-12-21T06:20:01.259Z,100458.67
2018-12-21T06:22:29.874Z,100448.75
2018-12-21T06:24:58.481Z,100453.59
2018-12-21T06:27:27.012Z,100445.42
2018-12-21T06:29:55.805Z,100438.03
2018-12-21T06:32:24.343Z,100441.19
2018-12-21T06:34:53.186Z,100433.84
2018-12-21T06:37:21.778Z,100436.87
2018-12-21T06:39:51.010Z,100436.44
2018-12-21T06:42:19.583Z,100439.95
2018-12-21T06:44:49.384Z,100438.75
2018-12-21T06:47:18.237Z,100443.50
2018-12-21T06:49:47.162Z,100437.09
2018-12-21T06:52:15.712Z,100432.28
2018-12-21T06:54:44.447Z,100430.58
2018-12-21T06:57:13.323Z,100420.22
2018-12-21T06:59:41.963Z,100429.74
2018-12-21T07:02:11.120Z,100423.66
2018-12-21T07:04:39.674Z,100422.80
2018-12-21T07:07:08.314Z,100415.02
2018-12-21T07:09:36.898Z,100418.92
2018-12-21T07:12:05.472Z,100418.84
2018-12-21T07:14:34.430Z,100421.82
2018-12-21T07:17:03.126Z,100414.44
2018-12-21T07:19:32.080Z,100417.55
2018-12-21T07:22:00.681Z,100418.42
2018-12-21T07:24:29.538Z,100416.28
2018-12-21T07:26:58.062Z,100411.50
2018-12-21T07:29:26.644Z,100412.41
2018-12-21T07:31:55.445Z,100415.81
2018-12-21T07:34:25.979Z,100416.24
2018-12-21T07:36:54.827Z,100404.98
2018-12-21T07:39:23.383Z,100403.28
2018-12-21T07:41:52.228Z,100395.83
2018-12-21T07:44:20.911Z,100392.36
2018-12-21T07:46:49.746Z,100394.97
2018-12-21T07:49:18.384Z,100395.47
2018-12-21T07:51:47.071Z,100393.27
2018-12-21T07:54:16.290Z,100394.97
2018-12-21T07:56:44.869Z,100392.76
2018-12-21T07:59:13.499Z,100389.28
2018-12-21T08:01:42.034Z,100391.89
2018-12-21T08:04:10.911Z,100395.72
2018-12-21T08:06:39.506Z,100382.30
2018-12-21T08:09:08.700Z,100345.25
2018-12-21T08:11:37.371Z,100385.77
2018-12-21T08:14:06.011Z,100380.56
2018-12-21T08:16:34.619Z,100381.47
2018-12-21T08:19:03.254Z,100378.83
2018-12-21T08:21:31.986Z,100382.70
2018-12-21T08:24:00.519Z,100380.56
2018-12-21T08:26:29.230Z,100375.03
2018-12-21T08:28:57.713Z,100379.33
2018-12-21T08:31:26.587Z,100370.64
2018-12-21T08:33:55.218Z,100374.52
2018-12-21T08:36:24.083Z,100366.23
2018-12-21T08:38:52.600Z,100362.72
2018-12-21T08:41:21.223Z,100361.38
2018-12-21T08:43:50.081Z,100368.69
2018-12-21T08:46:18.629Z,100360.03
2018-12-21T08:48:47.309Z,100359.56
2018-12-21T08:51:15.927Z,100362.53
2018-12-21T08:53:52.357Z,100360.39
2018-12-21T08:56:15.490Z,100360.75
2018-12-21T08:58:44.106Z,100254.37
2018-12-21T09:01:12.687Z,100361.63
2018-12-21T09:03:41.304Z,100351.67
2018-12-21T09:06:18.236Z,100350.30
2018-12-21T09:08:40.474Z,100341.60
2018-12-21T09:11:09.093Z,100333.78
2018-12-21T09:13:37.647Z,100338.92
2018-12-21T09:16:06.410Z,100269.64
2018-12-21T09:18:35.029Z,100331.97
2018-12-21T09:21:03.672Z,100323.64
2018-12-21T09:23:32.211Z,100317.23
2018-12-21T09:26:00.940Z,100326.60
2018-12-21T09:28:29.480Z,100322.69
2018-12-21T09:30:57.990Z,100304.05
2018-12-21T09:33:26.660Z,100305.75
2018-12-21T09:35:55.423Z,100309.18
2018-12-21T09:38:24.262Z,100305.63
2018-12-21T09:40:52.820Z,100300.45
2018-12-21T09:43:21.796Z,100307.48
2018-12-21T09:45:50.994Z,100301.48
2018-12-21T09:48:19.733Z,100290.27
2018-12-21T09:50:48.470Z,100298.48
2018-12-21T09:53:17.093Z,100286.79
2018-12-21T09:55:45.746Z,100291.92
2018-12-21T09:58:14.373Z,100277.32
2018-12-21T10:00:43.112Z,100276.92
2018-12-21T10:03:11.687Z,100271.31
2018-12-21T10:05:40.447Z,100268.23
2018-12-21T10:08:09.059Z,100257.42
2018-12-21T10:10:37.624Z,100258.80
2018-12-21T10:13:08.467Z,100247.03
2018-12-21T10:15:36.917Z,100242.73
2018-12-21T10:18:05.511Z,100245.34
2018-12-21T10:20:34.215Z,100248.73
2018-12-21T10:23:03.223Z,100245.30
2018-12-21T10:25:31.782Z,100234.79
2018-12-21T10:28:00.364Z,100230.05
2018-12-21T10:30:28.967Z,100226.54
2018-12-21T10:32:57.694Z,100222.67
2018-12-21T10:35:26.246Z,100217.06
2018-12-21T10:37:54.862Z,100220.89
2018-12-21T10:40:23.411Z,100193.78
2018-12-21T10:42:51.962Z,100201.18
2018-12-21T10:45:21.151Z,100209.78
2018-12-21T10:47:49.762Z,100215.34
2018-12-21T10:50:18.543Z,100204.91
2018-12-21T10:52:47.092Z,100201.01
2018-12-21T10:55:15.923Z,100202.23
2018-12-21T10:57:44.447Z,100201.41
2018-12-21T11:00:13.969Z,100204.41
2018-12-21T11:02:42.783Z,100200.57
2018-12-21T11:05:11.563Z,100199.62
2018-12-21T11:07:40.477Z,100185.84
2018-12-21T11:10:11.248Z,100201.31
2018-12-21T11:12:39.892Z,100201.23
2018-12-21T11:15:08.617Z,100193.50
2018-12-21T11:17:37.547Z,100146.73
2018-12-21T11:20:07.692Z,100194.41
2018-12-21T11:22:36.590Z,100189.98
2018-12-21T11:25:07.458Z,100190.98
2018-12-21T11:27:36.246Z,100187.06
2018-12-21T11:30:05.221Z,100184.46
2018-12-21T11:32:34.015Z,100184.15
2018-12-21T11:35:02.674Z,100174.55
2018-12-21T11:37:31.472Z,100175.34
2018-12-21T11:40:00.083Z,100103.53
2018-12-21T11:42:28.811Z,100167.42
2018-12-21T11:44:57.426Z,100169.64
2018-12-21T11:47:26.182Z,100162.30
2018-12-21T11:49:54.847Z,100165.73
2018-12-21T11:52:23.485Z,100158.70
2018-12-21T11:54:52.253Z,100154.00
2018-12-21T11:57:20.985Z,100160.47
2018-12-21T11:59:50.032Z,100149.74
2018-12-21T12:02:19.740Z,100153.18
2018-12-21T12:04:48.983Z,100152.78
2018-12-21T12:07:17.754Z,100150.57
2018-12-21T12:09:46.677Z,100148.87
2018-12-21T12:12:15.406Z,100145.87
2018-12-21T12:17:13.698Z,100144.06
2018-12-21T12:19:42.404Z,100130.23
2018-12-21T12:22:11.174Z,100143.23
2018-12-21T12:24:39.768Z,100142.36
2018-12-21T12:27:08.690Z,100028.95
2018-12-21T12:29:37.281Z,100133.72
2018-12-21T12:32:06.148Z,100134.15
2018-12-21T12:34:34.812Z,100126.81
2018-12-21T12:37:03.465Z,100126.33
2018-12-21T12:39:32.080Z,100123.72
2018-12-21T12:42:00.716Z,100122.42
2018-12-21T12:44:29.707Z,100067.28
2018-12-21T12:46:58.342Z,100110.27
2018-12-21T12:49:28.052Z,100111.13
2018-12-21T12:51:56.783Z,100097.14
2018-12-21T12:54:25.749Z,100099.31
2018-12-21T12:56:54.362Z,100094.05
2018-12-21T12:59:23.275Z,100095.35
2018-12-21T13:01:51.867Z,100088.41
2018-12-21T13:04:20.496Z,100078.45
2018-12-21T13:06:49.446Z,100077.20
2018-12-21T13:09:18.080Z,100083.20
2018-12-21T13:11:46.797Z,100084.41
2018-12-21T13:14:16.585Z,100074.50
2018-12-21T13:16:45.625Z,100073.59
2018-12-21T13:19:14.186Z,100076.68
2018-12-21T13:21:43.213Z,100077.11
2018-12-21T13:24:11.778Z,100077.98
2018-12-21T13:26:41.183Z,100071.03
2018-12-21T13:29:09.760Z,100072.47
2018-12-21T13:31:38.487Z,100074.64
2018-12-21T13:34:07.340Z,100010.45
2018-12-21T13:36:36.659Z,100060.25
2018-12-21T13:39:08.591Z,100055.44
2018-12-21T13:41:37.451Z,100050.36
2018-12-21T13:44:06.212Z,100055.53
2018-12-21T13:46:35.219Z,100043.02
2018-12-21T13:49:03.871Z,100044.32
2018-12-21T13:51:32.599Z,100043.50
2018-12-21T13:54:01.377Z,100043.45
2018-12-21T13:56:30.128Z,100050.41
2018-12-21T13:58:59.806Z,100045.62
2018-12-21T14:01:28.617Z,100050.41
2018-12-21T14:03:57.744Z,100042.69
2018-12-21T14:06:26.350Z,100045.28
2018-12-21T14:08:57.024Z,100045.28
2018-12-21T14:11:25.709Z,100043.59
2018-12-21T14:13:55.015Z,100021.51
2018-12-21T14:16:23.641Z,100039.69
2018-12-21T14:18:52.900Z,100039.30
2018-12-21T14:21:21.989Z,100042.86
2018-12-21T14:23:51.330Z,100032.00
2018-12-21T14:26:21.052Z,100032.39
2018-12-21T14:28:52.044Z,100028.58
2018-12-21T14:31:21.236Z,100025.14
2018-12-21T14:33:52.696Z,100016.98
2018-12-21T14:36:21.708Z,100028.02
2018-12-21T14:38:51.979Z,100030.16
2018-12-21T14:41:21.276Z,100015.57
2018-12-21T14:43:52.338Z,99954.15
2018-12-21T14:46:21.873Z,100005.28
2018-12-21T14:48:51.285Z,99974.62
2018-12-21T14:51:21.720Z,100006.00
2018-12-21T14:53:51.264Z,100006.42
2018-12-21T14:56:23.643Z,100003.00
2018-12-21T14:58:52.374Z,99998.79
2018-12-21T15:01:21.826Z,100004.39
2018-12-21T15:03:51.421Z,100000.57
2018-12-21T15:06:21.056Z,99944.36
2018-12-21T15:08:53.551Z,99997.97
2018-12-21T15:11:23.197Z,99945.91
2018-12-21T15:13:51.949Z,99991.73
2018-12-21T15:16:21.244Z,99999.05
2018-12-21T15:18:51.285Z,99991.81
2018-12-21T15:21:21.441Z,99995.72
2018-12-21T15:23:51.317Z,99994.02
2018-12-21T15:26:22.312Z,99985.82
2018-12-21T15:28:51.542Z,99980.19
2018-12-21T15:31:20.400Z,99979.31
2018-12-21T15:33:49.325Z,99978.80
2018-12-21T15:36:18.049Z,99970.55
2018-12-21T15:38:47.037Z,99969.38
2018-12-21T15:41:15.845Z,99967.68
2018-12-21T15:43:44.468Z,99957.70
2018-12-21T15:46:13.233Z,99966.42
2018-12-21T15:48:41.860Z,99963.44
2018-12-21T15:51:10.802Z,99946.94
2018-12-21T15:53:39.496Z,99946.03
2018-12-21T15:56:08.383Z,99938.31
2018-12-21T15:58:36.883Z,99944.05
2018-12-21T16:01:05.863Z,99940.61
2018-12-21T16:03:34.471Z,99930.59
2018-12-21T16:06:03.084Z,99928.38
2018-12-21T16:08:31.804Z,99926.78
2018-12-21T16:11:00.330Z,99926.69
2018-12-21T16:13:29.022Z,99930.89
2018-12-21T16:15:57.657Z,99912.38
2018-12-21T16:18:26.449Z,99851.42
2018-12-21T16:20:54.959Z,99913.67
2018-12-21T16:23:23.788Z,99916.71
2018-12-21T16:25:52.502Z,99910.98
2018-12-21T16:28:21.154Z,99905.77
2018-12-21T16:30:49.873Z,99910.12
2018-12-21T16:33:18.456Z,99903.17
2018-12-21T16:35:47.448Z,99905.29
2018-12-21T16:38:16.130Z,99909.11
2018-12-21T16:40:45.141Z,99906.59
2018-12-21T16:43:13.679Z,99907.47
2018-12-21T16:45:42.399Z,99894.06
2018-12-21T16:48:10.947Z,99901.38
2018-12-21T16:50:39.455Z,99900.87
2018-12-21T16:53:08.445Z,99865.49
2018-12-21T16:55:37.009Z,99890.97
2018-12-21T16:58:06.438Z,99891.36
2018-12-21T17:00:35.187Z,99898.78
2018-12-21T17:03:04.116Z,99899.66
2018-12-21T17:05:32.745Z,99892.76
2018-12-21T17:08:01.439Z,99891.84
2018-12-21T17:10:30.086Z,99895.75
2018-12-21T17:12:58.634Z,99892.66
2018-12-21T17:15:27.804Z,99884.86
2018-12-21T17:17:56.425Z,99886.55
2018-12-21T17:20:26.024Z,99880.95
2018-12-21T17:22:54.707Z,99883.64
2018-12-21T17:25:23.671Z,99884.47
2018-12-21T17:27:52.275Z,99877.95
2018-12-21T17:30:20.943Z,99875.40
2018-12-21T17:32:49.831Z,99869.33
2018-12-21T17:35:18.479Z,99878.05
2018-12-21T17:37:47.243Z,99876.23
2018-12-21T17:40:15.913Z,99876.66
2018-12-21T17:42:44.616Z,99868.30
2018-12-21T17:45:14.381Z,99877.14
2018-12-21T17:47:43.310Z,99878.83
2018-12-21T17:50:12.099Z,99885.86
2018-12-21T17:52:41.006Z,99876.32
2018-12-21T17:55:10.598Z,99873.72
2018-12-21T17:57:39.920Z,99885.52
2018-12-21T18:00:16.548Z,99888.98
2018-12-21T18:02:47.343Z,99875.67
2018-12-21T18:05:16.150Z,99876.02
2018-12-21T18:07:44.702Z,99875.62
2018-12-21T18:10:13.971Z,99874.77
2018-12-21T18:12:42.554Z,99868.78
2018-12-21T18:17:50.367Z,99799.16
2018-12-21T18:20:19.002Z,99870.27
2018-12-21T18:22:48.110Z,99867.27
2018-12-21T18:25:19.556Z,99872.57
2018-12-21T18:27:51.566Z,99866.20
2018-12-21T18:30:25.547Z,99861.52
2018-12-21T18:32:54.187Z,99868.55
2018-12-21T18:35:23.411Z,99878.13
2018-12-21T18:38:00.628Z,99867.33
2018-12-21T18:40:30.486Z,99865.13
2018-12-21T18:42:59.153Z,99865.03
2018-12-21T18:45:27.888Z,99864.25
2018-12-21T18:47:57.070Z,99858.31
2018-12-21T18:50:26.965Z,99868.72
2018-12-21T18:52:55.719Z,99860.61
2018-12-21T18:55:24.558Z,99870.50
2018-12-21T18:57:53.419Z,99873.19
2018-12-21T19:00:22.188Z,99875.80
2018-12-21T19:02:51.075Z,99871.19
2018-12-21T19:05:19.965Z,99873.45
2018-12-21T19:07:49.815Z,99876.96
2018-12-21T19:10:18.488Z,99870.23
2018-12-21T19:12:47.179Z,99869.38
2018-12-21T19:15:15.939Z,99865.08
2018-12-21T19:17:44.560Z,99866.47
2018-12-21T19:20:13.922Z,99843.05
2018-12-21T19:22:42.655Z,99867.80
2018-12-21T19:25:12.087Z,99817.30
2018-12-21T19:27:40.688Z,99867.98
2018-12-21T19:30:12.139Z,99855.92
2018-12-21T19:32:42.000Z,99862.98
2018-12-21T19:35:11.890Z,99833.32
2018-12-21T19:37:40.528Z,99864.33
2018-12-21T19:40:10.930Z,99806.67
2018-12-21T19:42:40.110Z,99849.13
2018-12-21T19:45:11.498Z,99849.29
2018-12-21T19:47:40.470Z,99850.11
2018-12-21T19:50:10.354Z,99849.72
2018-12-21T19:52:39.354Z,99852.84
2018-12-21T19:55:20.876Z,99823.05
2018-12-21T19:57:49.561Z,99850.28
2018-12-21T20:02:57.318Z,99850.76
2018-12-21T20:05:25.937Z,99843.47
2018-12-21T20:07:54.526Z,99851.27
2018-12-21T20:10:23.126Z,99846.94
2018-12-21T20:12:52.561Z,99855.64
2018-12-21T20:15:21.304Z,99853.12
2018-12-21T20:17:50.472Z,99851.52
2018-12-21T20:20:19.071Z,99854.19
2018-12-21T20:22:48.384Z,99843.80
2018-12-21T20:25:17.090Z,99850.77
2018-12-21T20:27:46.149Z,99849.00
2018-12-21T20:30:17.699Z,99843.80
2018-12-21T20:32:47.129Z,99855.48
2018-12-21T20:35:15.901Z,99841.20
2018-12-21T20:37:45.061Z,99846.91
2018-12-21T20:40:13.939Z,99845.26
2018-12-21T20:42:42.871Z,99843.96
2018-12-21T20:45:12.224Z,99844.04
2018-12-21T20:47:40.940Z,99850.93
2018-12-21T20:50:13.072Z,99844.95
2018-12-21T20:52:42.082Z,99841.56
2018-12-21T20:55:10.829Z,99847.19
2018-12-21T20:57:40.025Z,99842.42
2018-12-21T21:00:12.003Z,99817.32
2018-12-21T21:02:41.007Z,99848.57
2018-12-21T21:05:09.754Z,99844.67
2018-12-21T21:07:38.780Z,99843.45
2018-12-21T21:10:10.688Z,99843.45
2018-12-21T21:12:40.094Z,99851.25
2018-12-21T21:15:10.620Z,99844.36
2018-12-21T21:17:39.467Z,99847.86
2018-12-21T21:20:11.132Z,99843.53
2018-12-21T21:22:39.723Z,99846.05
2018-12-21T21:25:08.800Z,99853.92
2018-12-21T21:27:37.887Z,99802.95
2018-12-21T21:30:10.901Z,99856.28
2018-12-21T21:32:39.669Z,99847.11
2018-12-21T21:35:08.433Z,99844.20
2018-12-21T21:37:37.019Z,99836.05
2018-12-21T21:40:08.373Z,99849.91
2018-12-21T21:42:36.943Z,99853.88
2018-12-21T21:45:06.664Z,99850.41
2018-12-21T21:47:35.392Z,99848.72
2018-12-21T21:50:04.173Z,99862.17
2018-12-21T21:52:32.707Z,99860.44
2018-12-21T21:55:01.310Z,99864.88
2018-12-21T21:57:38.835Z,99865.75
2018-12-21T22:00:00.763Z,99864.05
2018-12-21T22:02:29.731Z,99774.61
2018-12-21T22:04:58.288Z,99863.30
2018-12-21T22:07:27.399Z,99862.55
2018-12-21T22:09:55.956Z,99860.85
2018-12-21T22:12:24.949Z,99869.00
2018-12-21T22:14:53.666Z,99860.85
2018-12-21T22:17:22.343Z,99863.52
2018-12-21T22:19:50.993Z,99864.35
2018-12-21T22:22:19.563Z,99860.92
2018-12-21T22:24:48.755Z,99818.36
2018-12-21T22:27:17.321Z,99862.15
2018-12-21T22:29:46.226Z,99861.72
2018-12-21T22:32:14.800Z,99856.56
2018-12-21T22:34:43.465Z,99850.00
2018-12-21T22:37:12.038Z,99861.72
2018-12-21T22:39:40.793Z,99863.45
2018-12-21T22:42:09.614Z,99826.79
2018-12-21T22:44:38.308Z,99851.73
2018-12-21T22:47:07.160Z,99862.98
2018-12-21T22:49:35.741Z,99860.85
2018-12-21T22:52:04.824Z,99862.58
2018-12-21T22:54:33.507Z,99854.83
2018-12-21T22:57:02.472Z,99863.13
2018-12-21T22:59:31.008Z,99851.44
2018-12-21T23:01:59.680Z,99859.23
2018-12-21T23:04:28.299Z,99854.94
2018-12-21T23:06:56.896Z,99854.08
2018-12-21T23:12:04.396Z,99851.91
2018-12-21T23:14:33.015Z,99845.50
2018-12-21T23:17:01.666Z,99774.83
2018-12-21T23:19:30.239Z,99846.40
2018-12-21T23:21:59.256Z,99845.57
2018-12-21T23:24:27.831Z,99837.03
2018-12-21T23:26:57.075Z,99841.75
2018-12-21T23:29:25.655Z,99835.33
2018-12-21T23:31:54.267Z,99839.73
2018-12-21T23:34:22.858Z,99839.80
2018-12-21T23:36:51.567Z,99841.93
2018-12-21T23:39:20.246Z,99836.34
2018-12-21T23:41:49.684Z,99837.20
2018-12-21T23:44:18.302Z,99838.08
2018-12-21T23:46:46.942Z,99846.36
2018-12-21T23:49:16.043Z,99839.88
2018-12-21T23:51:44.788Z,99844.27
2018-12-21T23:54:14.006Z,99841.24
2018-12-21T23:56:42.759Z,99845.06
2018-12-21T23:59:11.880Z,99839.52
